createdAt,value
2019-02-28T00:00:53.662Z,9.28
2019-02-28T00:03:22.169Z,11.22
2019-02-28T00:05:50.926Z,10.18
2019-02-28T00:08:19.352Z,10.30
2019-02-28T00:10:47.866Z,9.58
2019-02-28T00:13:16.305Z,10.13
2019-02-28T00:15:44.749Z,9.23
2019-02-28T00:18:15.317Z,9.55
2019-02-28T00:20:43.349Z,9.35
2019-02-28T00:23:11.793Z,9.05
2019-02-28T00:25:40.233Z,9.30
2019-02-28T00:28:08.662Z,9.60
2019-02-28T00:30:37.444Z,9.90
2019-02-28T00:33:26.602Z,9.90
2019-02-28T00:35:55.054Z,9.28
2019-02-28T00:38:23.493Z,9.08
2019-02-28T00:40:51.937Z,9.48
2019-02-28T00:43:22.284Z,10.35
2019-02-28T00:45:51.102Z,8.88
2019-02-28T00:48:21.753Z,9.25
2019-02-28T00:50:49.686Z,8.68
2019-02-28T00:53:18.157Z,8.93
2019-02-28T00:55:47.055Z,9.10
2019-02-28T00:58:15.890Z,9.70
2019-02-28T01:00:44.330Z,9.30
2019-02-28T01:03:12.761Z,8.90
2019-02-28T01:05:41.201Z,9.05
2019-02-28T01:08:09.999Z,8.48
2019-02-28T01:10:39.316Z,8.40
2019-02-28T01:13:08.550Z,8.73
2019-02-28T01:15:36.981Z,8.70
2019-02-28T01:18:05.426Z,8.93
2019-02-28T01:20:34.120Z,9.15
2019-02-28T01:23:02.570Z,9.25
2019-02-28T01:25:31.007Z,10.48
2019-02-28T01:27:59.449Z,8.60
2019-02-28T01:30:27.877Z,9.00
2019-02-28T01:32:56.322Z,9.33
2019-02-28T01:35:24.749Z,8.65
2019-02-28T01:37:53.207Z,8.25
2019-02-28T01:40:22.537Z,8.98
2019-02-28T01:42:53.890Z,8.70
2019-02-28T01:45:21.146Z,8.65
2019-02-28T01:47:51.713Z,9.10
2019-02-28T01:50:20.014Z,8.95
2019-02-28T01:52:48.810Z,8.33
2019-02-28T01:55:17.237Z,7.22
2019-02-28T01:57:45.694Z,7.75
2019-02-28T02:00:16.719Z,7.17
2019-02-28T02:02:45.170Z,6.23
2019-02-28T02:05:16.904Z,6.92
2019-02-28T02:07:44.074Z,6.65
2019-02-28T02:10:21.324Z,6.80
2019-02-28T02:12:49.962Z,6.75
2019-02-28T02:15:18.462Z,6.60
2019-02-28T02:17:47.250Z,6.75
2019-02-28T02:20:16.413Z,6.20
2019-02-28T02:22:45.419Z,5.97
2019-02-28T02:25:37.038Z,6.37
2019-02-28T02:28:03.677Z,6.08
2019-02-28T02:30:32.098Z,6.78
2019-02-28T02:33:00.562Z,6.78
2019-02-28T02:35:29.053Z,6.22
2019-02-28T02:37:57.477Z,6.35
2019-02-28T02:40:25.899Z,6.42
2019-02-28T02:42:54.338Z,5.60
2019-02-28T02:45:22.770Z,6.20
2019-02-28T02:47:51.215Z,7.10
2019-02-28T02:50:19.640Z,6.35
2019-02-28T02:52:48.088Z,6.58
2019-02-28T02:55:16.585Z,6.65
2019-02-28T02:57:50.650Z,6.12
2019-02-28T03:00:17.023Z,6.65
2019-02-28T03:02:45.654Z,6.55
2019-02-28T03:05:14.521Z,6.95
2019-02-28T03:07:42.949Z,7.10
2019-02-28T03:10:19.174Z,6.60
2019-02-28T03:12:46.450Z,6.20
2019-02-28T03:15:16.641Z,5.92
2019-02-28T03:17:47.171Z,6.35
2019-02-28T03:20:15.396Z,6.87
2019-02-28T03:22:43.861Z,5.95
2019-02-28T03:25:13.960Z,7.62
2019-02-28T03:27:42.453Z,6.37
2019-02-28T03:30:39.115Z,5.72
2019-02-28T03:33:07.627Z,5.33
2019-02-28T03:35:43.390Z,5.83
2019-02-28T03:38:10.642Z,6.22
2019-02-28T03:40:40.177Z,5.45
2019-02-28T03:43:07.090Z,5.45
2019-02-28T03:45:35.750Z,6.10
2019-02-28T03:48:04.262Z,5.28
2019-02-28T03:50:32.690Z,5.62
2019-02-28T03:53:01.134Z,6.10
2019-02-28T03:55:29.559Z,5.78
2019-02-28T03:58:03.900Z,5.30
2019-02-28T04:00:32.864Z,5.33
2019-02-28T04:02:59.085Z,5.30
2019-02-28T04:05:28.517Z,4.83
2019-02-28T04:07:57.182Z,5.08
2019-02-28T04:10:25.712Z,5.58
2019-02-28T04:12:54.200Z,5.37
2019-02-28T04:15:22.630Z,5.53
2019-02-28T04:17:51.083Z,5.25
2019-02-28T04:20:19.584Z,5.45
2019-02-28T04:22:48.075Z,5.28
2019-02-28T04:25:22.461Z,5.87
2019-02-28T04:27:46.691Z,5.62
2019-02-28T04:30:15.666Z,5.40
2019-02-28T04:32:44.102Z,5.83
2019-02-28T04:35:12.707Z,5.62
2019-02-28T04:37:45.505Z,5.28
2019-02-28T04:40:13.225Z,5.70
2019-02-28T04:42:41.661Z,5.42
2019-02-28T04:45:12.298Z,5.58
2019-02-28T04:47:41.647Z,5.37
2019-02-28T04:50:11.559Z,5.90
2019-02-28T04:52:59.325Z,5.97
2019-02-28T04:55:27.800Z,5.95
2019-02-28T04:57:56.238Z,5.78
2019-02-28T05:00:24.757Z,5.08
2019-02-28T05:02:54.833Z,5.83
2019-02-28T05:05:23.337Z,5.55
2019-02-28T05:07:51.770Z,5.20
2019-02-28T05:10:22.212Z,5.50
2019-02-28T05:12:50.367Z,6.85
2019-02-28T05:15:18.815Z,6.00
2019-02-28T05:17:47.243Z,5.97
2019-02-28T05:20:35.016Z,6.40
2019-02-28T05:23:03.441Z,6.55
2019-02-28T05:25:31.873Z,6.42
2019-02-28T05:28:00.297Z,5.95
2019-02-28T05:30:28.747Z,5.72
2019-02-28T05:32:57.169Z,6.00
2019-02-28T05:35:26.794Z,5.83
2019-02-28T05:37:55.365Z,6.30
2019-02-28T05:40:23.821Z,5.80
2019-02-28T05:42:54.703Z,5.67
2019-02-28T05:45:22.392Z,5.45
2019-02-28T05:47:50.915Z,6.15
2019-02-28T05:50:19.357Z,5.70
2019-02-28T05:52:47.824Z,4.67
2019-02-28T05:55:17.597Z,4.50
2019-02-28T05:57:46.032Z,4.80
2019-02-28T06:00:19.831Z,4.37
2019-02-28T06:02:50.603Z,4.85
2019-02-28T06:05:20.431Z,4.90
2019-02-28T06:07:50.750Z,4.87
2019-02-28T06:10:23.483Z,4.53
2019-02-28T06:12:49.677Z,4.42
2019-02-28T06:15:20.786Z,4.62
2019-02-28T06:17:49.212Z,4.50
2019-02-28T06:20:18.054Z,4.97
2019-02-28T06:23:06.396Z,4.60
2019-02-28T06:25:36.137Z,4.00
2019-02-28T06:28:04.565Z,3.75
2019-02-28T06:30:33.005Z,4.12
2019-02-28T06:33:01.433Z,4.00
2019-02-28T06:35:29.873Z,3.60
2019-02-28T06:37:58.299Z,4.30
2019-02-28T06:40:26.737Z,3.83
2019-02-28T06:42:55.868Z,3.83
2019-02-28T06:45:24.446Z,3.52
2019-02-28T06:47:52.950Z,2.55
2019-02-28T06:50:21.461Z,3.47
2019-02-28T06:52:50.147Z,3.08
2019-02-28T06:55:20.227Z,3.70
2019-02-28T06:57:48.660Z,3.20
2019-02-28T07:00:17.533Z,3.35
2019-02-28T07:02:45.970Z,2.72
2019-02-28T07:05:14.423Z,3.17
2019-02-28T07:07:45.664Z,2.40
2019-02-28T07:10:17.656Z,2.60
2019-02-28T07:12:46.086Z,2.60
2019-02-28T07:15:14.970Z,3.02
2019-02-28T07:17:46.280Z,2.67
2019-02-28T07:20:17.909Z,2.92
2019-02-28T07:22:46.352Z,2.17
2019-02-28T07:25:14.789Z,1.90
2019-02-28T07:27:43.237Z,2.20
2019-02-28T07:30:18.779Z,1.90
2019-02-28T07:32:47.251Z,1.67
2019-02-28T07:35:15.680Z,1.80
2019-02-28T07:37:44.127Z,2.17
2019-02-28T07:40:16.157Z,1.70
2019-02-28T07:42:45.202Z,1.90
2019-02-28T07:45:14.557Z,1.70
2019-02-28T07:47:43.073Z,1.90
2019-02-28T07:50:13.819Z,1.90
2019-02-28T07:52:42.339Z,1.90
2019-02-28T07:55:18.309Z,1.85
2019-02-28T07:57:50.947Z,2.00
2019-02-28T08:00:23.533Z,1.85
2019-02-28T08:02:51.973Z,1.90
2019-02-28T08:05:20.574Z,2.15
2019-02-28T08:07:52.149Z,2.50
2019-02-28T08:10:32.942Z,2.22
2019-02-28T08:13:03.018Z,1.80
2019-02-28T08:15:32.091Z,1.98
2019-02-28T08:18:00.879Z,2.00
2019-02-28T08:20:30.649Z,2.00
2019-02-28T08:22:59.837Z,1.95
2019-02-28T08:25:28.263Z,2.30
2019-02-28T08:27:59.814Z,2.20
2019-02-28T08:30:29.206Z,2.62
2019-02-28T08:32:57.737Z,2.03
2019-02-28T08:35:26.164Z,2.40
2019-02-28T08:37:56.981Z,2.10
2019-02-28T08:40:26.893Z,2.40
2019-02-28T08:42:55.732Z,2.87
2019-02-28T08:45:24.190Z,2.30
2019-02-28T08:47:55.834Z,2.40
2019-02-28T08:50:24.049Z,2.67
2019-02-28T08:53:03.469Z,2.60
2019-02-28T08:55:31.889Z,2.50
2019-02-28T08:58:05.101Z,2.30
2019-02-28T09:00:33.052Z,2.67
2019-02-28T09:03:01.711Z,2.65
2019-02-28T09:05:30.318Z,2.75
2019-02-28T09:07:59.136Z,2.47
2019-02-28T09:10:27.691Z,2.60
2019-02-28T09:12:56.206Z,2.55
2019-02-28T09:15:30.123Z,2.98
2019-02-28T09:17:58.243Z,3.77
2019-02-28T09:20:25.165Z,2.62
2019-02-28T09:22:53.621Z,3.00
2019-02-28T09:25:24.237Z,2.98
2019-02-28T09:27:52.845Z,2.77
2019-02-28T09:30:29.620Z,3.08
2019-02-28T09:32:57.769Z,3.08
2019-02-28T09:35:26.301Z,3.05
2019-02-28T09:37:54.742Z,3.05
2019-02-28T09:40:25.645Z,3.12
2019-02-28T09:42:53.647Z,3.00
2019-02-28T09:45:24.184Z,3.25
2019-02-28T09:47:52.646Z,2.80
2019-02-28T09:50:23.257Z,4.33
2019-02-28T09:52:51.936Z,3.37
2019-02-28T09:55:20.719Z,3.67
2019-02-28T09:57:53.305Z,3.10
2019-02-28T10:00:20.858Z,2.87
2019-02-28T10:02:49.306Z,3.22
2019-02-28T10:05:17.808Z,3.05
2019-02-28T10:07:46.402Z,3.15
2019-02-28T10:10:17.472Z,3.37
2019-02-28T10:12:47.515Z,3.75
2019-02-28T10:15:18.485Z,3.40
2019-02-28T10:17:47.401Z,3.20
2019-02-28T10:20:32.718Z,2.90
2019-02-28T10:23:01.161Z,2.85
2019-02-28T10:25:29.605Z,2.67
2019-02-28T10:28:01.707Z,2.37
2019-02-28T10:30:32.119Z,2.90
2019-02-28T10:32:59.257Z,3.12
2019-02-28T10:35:27.693Z,3.10
2019-02-28T10:37:58.463Z,3.45
2019-02-28T10:40:27.478Z,3.40
2019-02-28T10:42:55.913Z,3.45
2019-02-28T10:45:24.990Z,3.20
2019-02-28T10:47:53.423Z,3.10
2019-02-28T10:50:33.140Z,3.08
2019-02-28T10:53:04.039Z,3.22
2019-02-28T10:55:30.453Z,2.70
2019-02-28T10:57:58.954Z,3.10
2019-02-28T11:00:32.706Z,3.35
2019-02-28T11:03:02.049Z,2.77
2019-02-28T11:05:35.394Z,3.95
2019-02-28T11:08:05.378Z,3.20
2019-02-28T11:10:38.957Z,3.80
2019-02-28T11:13:10.461Z,3.47
2019-02-28T11:15:38.977Z,3.87
2019-02-28T11:18:09.617Z,3.47
2019-02-28T11:20:39.323Z,3.05
2019-02-28T11:23:08.191Z,4.05
2019-02-28T11:25:36.700Z,3.58
2019-02-28T11:28:05.605Z,3.60
2019-02-28T11:30:36.079Z,4.22
2019-02-28T11:33:05.538Z,4.00
2019-02-28T11:35:34.036Z,3.87
2019-02-28T11:38:02.494Z,3.92
2019-02-28T11:40:31.950Z,4.45
2019-02-28T11:43:02.738Z,4.30
2019-02-28T11:45:37.809Z,4.67
2019-02-28T11:48:08.849Z,4.30
2019-02-28T11:50:41.128Z,4.47
2019-02-28T11:53:07.515Z,4.58
2019-02-28T11:55:36.031Z,4.35
2019-02-28T11:58:04.462Z,4.80
2019-02-28T12:00:38.584Z,3.27
2019-02-28T12:03:07.083Z,5.03
2019-02-28T12:05:35.545Z,4.30
2019-02-28T12:08:09.293Z,4.67
2019-02-28T12:10:34.484Z,4.35
2019-02-28T12:13:02.915Z,4.37
2019-02-28T12:15:33.978Z,4.70
2019-02-28T12:18:04.527Z,4.43
2019-02-28T12:20:32.952Z,4.20
2019-02-28T12:23:01.382Z,4.75
2019-02-28T12:25:29.905Z,4.67
2019-02-28T12:27:59.404Z,3.72
2019-02-28T12:30:35.089Z,3.35
2019-02-28T12:33:03.523Z,3.52
2019-02-28T12:35:36.292Z,4.00
2019-02-28T12:38:02.932Z,5.00
2019-02-28T12:40:42.497Z,4.47
2019-02-28T12:43:11.641Z,3.83
2019-02-28T12:45:47.219Z,3.62
2019-02-28T12:48:15.508Z,4.58
2019-02-28T12:50:44.017Z,3.25
2019-02-28T12:53:12.461Z,2.92
2019-02-28T12:55:41.139Z,3.45
2019-02-28T12:58:09.582Z,4.35
2019-02-28T13:00:42.707Z,4.08
2019-02-28T13:03:11.325Z,4.75
2019-02-28T13:05:39.822Z,2.22
2019-02-28T13:08:08.269Z,4.00
2019-02-28T13:10:36.975Z,4.17
2019-02-28T13:13:07.507Z,4.15
2019-02-28T13:15:36.270Z,4.65
2019-02-28T13:18:08.847Z,3.85
2019-02-28T13:20:37.083Z,3.87
2019-02-28T13:23:05.671Z,4.53
2019-02-28T13:25:34.171Z,2.62
2019-02-28T13:28:02.614Z,8.88
2019-02-28T13:30:31.060Z,4.70
2019-02-28T13:32:59.710Z,4.78
2019-02-28T13:35:31.317Z,4.75
2019-02-28T13:37:59.769Z,4.17
2019-02-28T13:40:28.275Z,3.72
2019-02-28T13:42:56.875Z,4.67
2019-02-28T13:45:25.885Z,5.58
2019-02-28T13:47:54.615Z,4.37
2019-02-28T13:50:33.742Z,4.25
2019-02-28T13:53:16.907Z,4.65
2019-02-28T13:55:32.341Z,4.53
2019-02-28T13:58:00.870Z,6.50
2019-02-28T14:00:31.498Z,4.40
2019-02-28T14:03:10.625Z,4.83
2019-02-28T14:05:41.489Z,5.10
2019-02-28T14:08:12.171Z,4.08
2019-02-28T14:10:40.834Z,4.12
2019-02-28T14:13:09.345Z,5.58
2019-02-28T14:15:47.850Z,4.20
2019-02-28T14:18:16.450Z,5.20
2019-02-28T14:20:45.248Z,4.25
2019-02-28T14:23:13.677Z,4.85
2019-02-28T14:25:42.131Z,5.20
2019-02-28T14:28:10.652Z,4.28
2019-02-28T14:30:42.030Z,6.05
2019-02-28T14:33:10.473Z,5.78
2019-02-28T14:35:38.990Z,4.78
2019-02-28T14:38:07.593Z,4.12
2019-02-28T14:40:36.113Z,6.55
2019-02-28T14:43:04.863Z,5.20
2019-02-28T14:45:42.651Z,5.28
2019-02-28T14:48:09.269Z,5.30
2019-02-28T14:50:38.020Z,6.10
2019-02-28T14:53:06.542Z,5.95
2019-02-28T14:55:35.105Z,6.42
2019-02-28T14:58:03.722Z,5.62
2019-02-28T15:00:35.416Z,5.90
2019-02-28T15:03:04.247Z,5.40
2019-02-28T15:05:38.490Z,5.28
2019-02-28T15:08:06.990Z,6.05
2019-02-28T15:10:35.522Z,6.12
2019-02-28T15:13:05.005Z,6.67
2019-02-28T15:15:36.118Z,6.72
2019-02-28T15:18:04.705Z,5.97
2019-02-28T15:20:33.361Z,6.25
2019-02-28T15:23:01.886Z,6.92
2019-02-28T15:25:30.838Z,7.03
2019-02-28T15:27:59.411Z,6.17
2019-02-28T15:30:41.357Z,7.97
2019-02-28T15:33:09.873Z,7.10
2019-02-28T15:35:38.385Z,7.17
2019-02-28T15:38:09.323Z,6.83
2019-02-28T15:40:47.117Z,7.03
2019-02-28T15:43:18.218Z,6.62
2019-02-28T15:45:46.128Z,7.10
2019-02-28T15:48:14.602Z,6.65
2019-02-28T15:50:43.233Z,6.78
2019-02-28T15:53:15.122Z,6.50
2019-02-28T15:55:41.866Z,6.65
2019-02-28T15:58:10.636Z,6.45
2019-02-28T16:00:39.390Z,6.58
2019-02-28T16:03:07.907Z,6.50
2019-02-28T16:05:42.479Z,7.22
2019-02-28T16:08:10.314Z,6.08
2019-02-28T16:10:39.067Z,6.62
2019-02-28T16:13:07.739Z,6.55
2019-02-28T16:15:36.227Z,7.00
2019-02-28T16:18:05.235Z,6.97
2019-02-28T16:20:33.674Z,6.97
2019-02-28T16:23:02.290Z,6.58
2019-02-28T16:25:38.471Z,6.22
2019-02-28T16:28:09.104Z,7.17
2019-02-28T16:30:38.694Z,7.03
2019-02-28T16:33:07.146Z,7.28
2019-02-28T16:35:35.662Z,7.08
2019-02-28T16:38:06.592Z,6.65
2019-02-28T16:40:34.534Z,6.28
2019-02-28T16:43:03.224Z,6.65
2019-02-28T16:45:33.316Z,6.33
2019-02-28T16:48:03.458Z,6.40
2019-02-28T16:50:34.630Z,6.30
2019-02-28T16:53:03.194Z,6.03
2019-02-28T16:55:31.833Z,5.90
2019-02-28T16:58:00.871Z,6.37
2019-02-28T17:00:29.330Z,6.45
2019-02-28T17:02:58.038Z,6.78
2019-02-28T17:05:28.025Z,7.40
2019-02-28T17:07:56.870Z,7.75
2019-02-28T17:10:32.914Z,6.90
2019-02-28T17:13:15.008Z,6.72
2019-02-28T17:18:22.838Z,7.12
2019-02-28T17:20:51.269Z,6.33
2019-02-28T17:23:19.737Z,6.60
2019-02-28T17:25:48.173Z,7.58
2019-02-28T17:28:18.290Z,8.78
2019-02-28T17:30:57.093Z,9.78
2019-02-28T17:33:25.534Z,7.67
2019-02-28T17:35:54.383Z,7.30
2019-02-28T17:38:22.862Z,7.20
2019-02-28T17:40:51.295Z,6.50
2019-02-28T17:43:24.085Z,7.25
2019-02-28T17:45:50.606Z,7.12
2019-02-28T17:48:45.304Z,6.62
2019-02-28T17:51:26.546Z,6.70
2019-02-28T17:54:13.106Z,5.87
2019-02-28T17:56:44.749Z,5.70
2019-02-28T17:59:25.570Z,5.72
2019-02-28T18:02:06.280Z,6.30
2019-02-28T18:04:56.030Z,6.70
2019-02-28T18:07:38.099Z,5.30
2019-02-28T18:10:21.120Z,5.53
2019-02-28T18:13:06.746Z,6.25
2019-02-28T18:15:42.112Z,5.85
2019-02-28T18:18:26.492Z,6.15
2019-02-28T18:21:31.869Z,7.30
2019-02-28T18:24:12.586Z,6.85
2019-02-28T18:27:03.460Z,59.13
2019-02-28T18:29:37.949Z,11.40
2019-02-28T18:32:06.390Z,7.92
2019-02-28T18:34:35.480Z,11.45
2019-02-28T18:37:04.016Z,14.03
2019-02-28T18:39:32.449Z,22.32
2019-02-28T18:42:01.239Z,10.13
2019-02-28T18:44:29.673Z,10.80
2019-02-28T18:46:58.214Z,7.83
2019-02-28T18:49:29.311Z,8.40
2019-02-28T18:51:56.826Z,8.03
2019-02-28T18:54:25.356Z,8.55
2019-02-28T18:56:53.807Z,8.13
2019-02-28T18:59:22.251Z,7.97
2019-02-28T19:01:50.694Z,10.20
2019-02-28T19:04:19.136Z,8.40
2019-02-28T19:06:47.572Z,9.10
2019-02-28T19:09:18.903Z,8.38
2019-02-28T19:11:47.349Z,8.38
2019-02-28T19:14:15.794Z,8.55
2019-02-28T19:16:44.404Z,8.10
2019-02-28T19:19:12.881Z,8.33
2019-02-28T19:21:41.318Z,8.60
2019-02-28T19:24:09.801Z,9.60
2019-02-28T19:26:38.256Z,9.10
2019-02-28T19:29:06.842Z,9.60
2019-02-28T19:31:35.558Z,9.25
2019-02-28T19:34:04.038Z,9.25
2019-02-28T19:36:32.473Z,9.35
2019-02-28T19:39:01.092Z,9.63
2019-02-28T19:41:29.602Z,10.05
2019-02-28T19:43:58.051Z,8.15
2019-02-28T19:46:26.486Z,9.65
2019-02-28T19:48:54.933Z,9.50
2019-02-28T19:51:23.379Z,10.53
2019-02-28T19:53:51.853Z,10.23
2019-02-28T19:56:21.042Z,10.58
2019-02-28T19:58:49.638Z,9.70
2019-02-28T20:01:22.489Z,10.10
2019-02-28T20:03:48.694Z,10.85
2019-02-28T20:06:17.473Z,10.63
2019-02-28T20:08:47.502Z,9.73
2019-02-28T20:11:16.069Z,10.20
2019-02-28T20:13:45.274Z,10.30
2019-02-28T20:16:15.297Z,10.73
2019-02-28T20:18:43.798Z,11.33
2019-02-28T20:21:13.963Z,10.10
2019-02-28T20:23:45.337Z,10.90
2019-02-28T20:26:18.427Z,10.50
2019-02-28T20:28:54.973Z,10.35
2019-02-28T20:31:25.664Z,10.50
2019-02-28T20:33:58.758Z,10.78
2019-02-28T20:36:28.096Z,10.85
2019-02-28T20:39:00.978Z,9.98
2019-02-28T20:41:30.009Z,10.68
2019-02-28T20:47:28.895Z,10.58
2019-02-28T20:49:58.272Z,10.38
2019-02-28T20:52:27.187Z,10.63
2019-02-28T20:54:56.463Z,11.15
2019-02-28T20:57:25.337Z,10.72
2019-02-28T20:59:54.557Z,10.75
2019-02-28T21:02:23.860Z,10.63
2019-02-28T21:04:52.826Z,11.15
2019-02-28T21:07:21.928Z,10.75
2019-02-28T21:09:52.611Z,11.55
2019-02-28T21:12:21.507Z,10.55
2019-02-28T21:14:50.814Z,10.32
2019-02-28T21:17:29.018Z,11.38
2019-02-28T21:19:50.653Z,10.93
2019-02-28T21:22:19.742Z,9.73
2019-02-28T21:24:49.347Z,9.28
2019-02-28T21:27:18.724Z,10.55
2019-02-28T21:29:47.994Z,9.55
2019-02-28T21:32:16.839Z,10.48
2019-02-28T21:34:45.757Z,9.28
2019-02-28T21:37:15.080Z,9.73
2019-02-28T21:39:44.371Z,10.23
2019-02-28T21:42:13.452Z,7.85
2019-02-28T21:44:42.560Z,9.98
2019-02-28T21:47:11.414Z,10.60
2019-02-28T21:49:39.845Z,10.45
2019-02-28T21:52:08.321Z,10.45
2019-02-28T21:54:36.761Z,11.05
2019-02-28T21:57:05.210Z,11.05
2019-02-28T21:59:33.649Z,10.78
2019-02-28T22:02:02.240Z,10.82
2019-02-28T22:04:30.986Z,10.28
2019-02-28T22:06:59.438Z,10.40
2019-02-28T22:09:27.870Z,10.40
2019-02-28T22:11:56.397Z,10.65
2019-02-28T22:14:25.146Z,10.88
2019-02-28T22:16:54.016Z,11.08
2019-02-28T22:19:22.449Z,10.38
2019-02-28T22:21:50.975Z,10.65
2019-02-28T22:24:19.414Z,11.33
2019-02-28T22:26:47.861Z,11.73
2019-02-28T22:29:16.301Z,10.82
2019-02-28T22:31:55.365Z,10.98
2019-02-28T22:34:25.459Z,11.05
2019-02-28T22:36:53.971Z,10.72
2019-02-28T22:39:22.406Z,10.72
2019-02-28T22:41:50.854Z,11.43
2019-02-28T22:44:19.373Z,10.80
2019-02-28T22:46:47.827Z,10.98
2019-02-28T22:49:16.263Z,11.03
2019-02-28T22:51:44.785Z,11.18
2019-02-28T22:54:13.225Z,11.65
2019-02-28T22:56:41.669Z,11.83
2019-02-28T22:59:10.385Z,11.18
2019-02-28T23:01:39.241Z,11.43
2019-02-28T23:04:07.748Z,11.70
2019-02-28T23:06:36.194Z,11.80
2019-02-28T23:09:06.106Z,11.38
2019-02-28T23:11:34.558Z,11.20
2019-02-28T23:14:02.989Z,11.30
2019-02-28T23:16:31.693Z,10.90
2019-02-28T23:19:00.140Z,11.45
2019-02-28T23:21:28.586Z,12.82
2019-02-28T23:23:57.042Z,10.35
2019-02-28T23:26:26.118Z,11.93
2019-02-28T23:28:57.641Z,13.35
2019-02-28T23:32:02.479Z,12.13
2019-02-28T23:34:33.918Z,13.83
2019-02-28T23:37:02.349Z,13.55
2019-02-28T23:39:30.810Z,13.65
2019-02-28T23:41:59.241Z,14.85
2019-02-28T23:44:27.690Z,15.20
2019-02-28T23:46:56.201Z,15.95
2019-02-28T23:49:24.657Z,15.38
2019-02-28T23:51:53.098Z,14.47
2019-02-28T23:54:23.811Z,14.25
2019-02-28T23:56:52.248Z,12.53
2019-02-28T23:59:20.707Z,12.75
